createdAt,value
2018-04-22T00:01:36.675Z,13.00
2018-04-22T00:04:03.906Z,12.90
2018-04-22T00:06:30.381Z,12.90
2018-04-22T00:08:56.810Z,12.90
2018-04-22T00:11:24.030Z,12.80
2018-04-22T00:13:50.446Z,12.80
2018-04-22T00:16:16.890Z,12.80
2018-04-22T00:18:43.334Z,12.80
2018-04-22T00:21:09.786Z,12.80
2018-04-22T00:23:36.985Z,12.70
2018-04-22T00:26:03.513Z,12.70
2018-04-22T00:28:29.928Z,12.60
2018-04-22T00:30:56.377Z,12.60
2018-04-22T00:33:22.814Z,12.60
2018-04-22T00:35:49.227Z,12.50
2018-04-22T00:38:15.694Z,12.50
2018-04-22T00:40:42.152Z,12.50
2018-04-22T00:43:08.635Z,12.60
2018-04-22T00:45:35.087Z,12.50
2018-04-22T00:48:01.559Z,12.50
2018-04-22T00:50:28.001Z,12.40
2018-04-22T00:52:55.209Z,12.40
2018-04-22T00:55:21.642Z,12.30
2018-04-22T00:57:48.052Z,12.30
2018-04-22T01:00:14.509Z,12.30
2018-04-22T01:02:40.958Z,12.30
2018-04-22T01:05:07.450Z,12.30
2018-04-22T01:07:34.605Z,12.20
2018-04-22T01:10:01.796Z,12.20
2018-04-22T01:12:28.213Z,12.20
2018-04-22T01:14:54.690Z,12.30
2018-04-22T01:17:21.110Z,12.30
2018-04-22T01:19:47.570Z,12.20
2018-04-22T01:22:14.008Z,12.20
2018-04-22T01:24:41.220Z,12.10
2018-04-22T01:27:07.712Z,12.10
2018-04-22T01:29:34.169Z,12.10
2018-04-22T01:32:00.606Z,12.00
2018-04-22T01:34:27.083Z,12.00
2018-04-22T01:36:53.512Z,12.00
2018-04-22T01:39:19.957Z,12.00
2018-04-22T01:41:46.457Z,12.00
2018-04-22T01:44:12.889Z,12.00
2018-04-22T01:46:39.309Z,12.10
2018-04-22T01:49:05.759Z,12.00
2018-04-22T01:51:32.225Z,12.00
2018-04-22T01:53:58.651Z,12.20
2018-04-22T01:56:25.105Z,12.30
2018-04-22T01:58:52.284Z,12.50
2018-04-22T02:01:18.745Z,12.50
2018-04-22T02:03:45.174Z,12.50
2018-04-22T02:06:11.635Z,12.50
2018-04-22T02:08:38.118Z,12.30
2018-04-22T02:11:04.565Z,12.30
2018-04-22T02:13:31.087Z,12.30
2018-04-22T02:15:57.551Z,12.20
2018-04-22T02:18:24.064Z,12.10
2018-04-22T02:20:50.566Z,12.10
2018-04-22T02:23:17.062Z,12.10
2018-04-22T02:25:43.592Z,12.10
2018-04-22T02:28:10.083Z,12.00
2018-04-22T02:30:36.599Z,11.90
2018-04-22T02:33:03.847Z,11.80
2018-04-22T02:35:30.365Z,11.80
2018-04-22T02:37:56.860Z,11.80
2018-04-22T02:40:23.378Z,11.80
2018-04-22T02:42:50.648Z,11.70
2018-04-22T02:45:17.153Z,11.70
2018-04-22T02:47:43.675Z,11.60
2018-04-22T02:50:10.185Z,11.60
2018-04-22T02:52:36.666Z,11.60
2018-04-22T02:55:03.239Z,11.50
2018-04-22T02:57:29.938Z,11.40
2018-04-22T02:59:57.197Z,11.40
2018-04-22T03:02:23.698Z,11.40
2018-04-22T03:04:50.178Z,11.40
2018-04-22T03:07:16.671Z,11.40
2018-04-22T03:09:44.372Z,11.40
2018-04-22T03:12:10.857Z,11.30
2018-04-22T03:14:37.344Z,11.30
2018-04-22T03:17:03.829Z,11.40
2018-04-22T03:19:30.329Z,11.30
2018-04-22T03:21:56.855Z,11.30
2018-04-22T03:24:23.365Z,11.30
2018-04-22T03:26:50.621Z,11.30
2018-04-22T03:29:17.109Z,11.20
2018-04-22T03:31:44.551Z,11.30
2018-04-22T03:34:11.043Z,11.30
2018-04-22T03:36:37.543Z,11.30
2018-04-22T03:39:04.155Z,11.20
2018-04-22T03:41:30.636Z,11.20
2018-04-22T03:43:57.194Z,11.20
2018-04-22T03:46:24.434Z,11.10
2018-04-22T03:48:51.712Z,11.10
2018-04-22T03:51:18.201Z,11.00
2018-04-22T03:53:44.721Z,11.10
2018-04-22T03:56:11.223Z,11.00
2018-04-22T03:58:37.720Z,11.00
2018-04-22T04:01:06.467Z,11.00
2018-04-22T04:03:32.947Z,11.00
2018-04-22T04:05:59.432Z,10.90
2018-04-22T04:08:25.930Z,10.90
2018-04-22T04:10:53.177Z,10.80
2018-04-22T04:13:26.622Z,10.80
2018-04-22T04:15:53.102Z,10.80
2018-04-22T04:21:39.590Z,10.70
2018-04-22T04:24:27.132Z,10.80
2018-04-22T04:27:18.453Z,10.80
2018-04-22T04:29:45.033Z,10.80
2018-04-22T04:32:11.565Z,10.80
2018-04-22T04:34:38.078Z,10.80
2018-04-22T04:37:04.572Z,10.80
2018-04-22T04:39:31.126Z,10.80
2018-04-22T04:42:07.705Z,10.80
2018-04-22T04:44:39.808Z,10.80
2018-04-22T04:47:07.044Z,10.90
2018-04-22T04:49:34.268Z,10.90
2018-04-22T04:52:00.774Z,10.90
2018-04-22T04:54:27.301Z,10.90
2018-04-22T04:56:53.846Z,10.90
2018-04-22T04:59:20.363Z,10.90
2018-04-22T05:01:46.882Z,11.00
2018-04-22T05:04:14.137Z,11.10
2018-04-22T05:06:40.635Z,11.10
2018-04-22T05:09:07.154Z,11.20
2018-04-22T05:11:33.648Z,11.30
2018-04-22T05:14:00.883Z,11.40
2018-04-22T05:16:27.390Z,11.40
2018-04-22T05:18:53.900Z,11.50
2018-04-22T05:21:20.405Z,11.60
2018-04-22T05:23:47.662Z,11.70
2018-04-22T05:26:14.902Z,11.70
2018-04-22T05:28:42.159Z,11.70
2018-04-22T05:31:09.401Z,11.80
2018-04-22T05:33:35.887Z,11.80
2018-04-22T05:36:02.387Z,11.80
2018-04-22T05:38:28.873Z,11.90
2018-04-22T05:40:55.626Z,12.00
2018-04-22T05:43:22.117Z,12.10
2018-04-22T05:45:48.631Z,12.30
2018-04-22T05:48:16.027Z,12.60
2018-04-22T05:50:42.525Z,12.60
2018-04-22T05:53:09.747Z,12.90
2018-04-22T05:55:36.206Z,12.80
2018-04-22T05:58:03.425Z,13.10
2018-04-22T06:00:29.913Z,13.00
2018-04-22T06:03:12.335Z,13.10
2018-04-22T06:05:38.865Z,13.20
2018-04-22T06:08:05.345Z,13.30
2018-04-22T06:10:31.837Z,13.40
2018-04-22T06:12:58.292Z,13.50
2018-04-22T06:15:24.726Z,13.60
2018-04-22T06:17:51.140Z,13.70
2018-04-22T06:20:17.560Z,13.70
2018-04-22T06:22:43.963Z,13.80
2018-04-22T06:25:10.391Z,13.80
2018-04-22T06:27:36.824Z,13.80
2018-04-22T06:30:03.290Z,13.90
2018-04-22T06:32:29.694Z,13.90
2018-04-22T06:34:56.122Z,14.00
2018-04-22T06:37:22.539Z,14.00
2018-04-22T06:39:48.957Z,14.10
2018-04-22T06:42:15.364Z,14.20
2018-04-22T06:44:41.782Z,14.20
2018-04-22T06:47:08.941Z,14.40
2018-04-22T06:49:35.358Z,14.40
2018-04-22T06:52:02.525Z,14.60
2018-04-22T06:54:28.945Z,14.60
2018-04-22T06:56:55.357Z,14.80
2018-04-22T06:59:22.524Z,15.00
2018-04-22T07:01:48.928Z,15.00
2018-04-22T07:04:15.350Z,15.10
2018-04-22T07:06:41.777Z,15.20
2018-04-22T07:09:08.202Z,15.30
2018-04-22T07:11:34.632Z,15.30
2018-04-22T07:14:01.074Z,15.40
2018-04-22T07:16:27.495Z,15.40
2018-04-22T07:18:53.898Z,15.50
2018-04-22T07:21:21.077Z,15.70
2018-04-22T07:23:47.486Z,15.70
2018-04-22T07:26:13.917Z,15.80
2018-04-22T07:28:41.101Z,16.10
2018-04-22T07:31:07.527Z,16.00
2018-04-22T07:33:33.938Z,16.10
2018-04-22T07:36:00.344Z,16.20
2018-04-22T07:38:27.524Z,16.50
2018-04-22T07:40:54.684Z,16.70
2018-04-22T07:43:21.107Z,16.70
2018-04-22T07:45:48.283Z,17.10
2018-04-22T07:48:14.687Z,17.10
2018-04-22T07:50:41.108Z,17.40
2018-04-22T07:53:08.360Z,17.50
2018-04-22T07:55:35.562Z,17.30
2018-04-22T07:58:02.048Z,17.30
2018-04-22T08:00:29.206Z,16.00
2018-04-22T08:02:55.640Z,16.00
2018-04-22T08:05:22.070Z,16.10
2018-04-22T08:07:49.259Z,16.20
2018-04-22T08:10:16.731Z,16.10
2018-04-22T08:12:42.170Z,16.40
2018-04-22T08:15:08.705Z,16.50
2018-04-22T08:17:35.176Z,16.80
2018-04-22T08:20:01.648Z,17.10
2018-04-22T08:22:28.113Z,17.20
2018-04-22T08:24:56.047Z,17.30
2018-04-22T08:27:22.501Z,17.30
2018-04-22T08:29:48.973Z,17.30
2018-04-22T08:32:16.186Z,17.20
2018-04-22T08:34:42.709Z,17.20
2018-04-22T08:37:09.174Z,17.30
2018-04-22T08:39:35.666Z,17.30
2018-04-22T08:42:02.100Z,17.30
2018-04-22T08:44:28.579Z,17.20
2018-04-22T08:49:49.207Z,17.20
2018-04-22T08:52:16.398Z,17.10
2018-04-22T08:54:42.874Z,17.00
2018-04-22T08:57:09.346Z,17.20
2018-04-22T08:59:35.802Z,17.20
2018-04-22T09:02:02.280Z,17.20
2018-04-22T09:04:28.675Z,17.20
2018-04-22T09:06:55.092Z,17.20
2018-04-22T09:09:21.579Z,17.30
2018-04-22T09:11:48.021Z,17.40
2018-04-22T09:14:15.223Z,17.50
2018-04-22T09:16:41.669Z,17.50
2018-04-22T09:19:08.107Z,17.50
2018-04-22T09:21:34.579Z,17.50
2018-04-22T09:24:01.851Z,17.50
2018-04-22T09:26:28.319Z,17.50
2018-04-22T09:28:54.762Z,17.60
2018-04-22T09:31:21.196Z,17.60
2018-04-22T09:33:47.621Z,17.60
2018-04-22T09:36:14.046Z,17.80
2018-04-22T09:38:40.464Z,17.90
2018-04-22T09:41:06.900Z,18.20
2018-04-22T09:43:33.323Z,18.20
2018-04-22T09:46:00.551Z,18.30
2018-04-22T09:48:26.944Z,18.30
2018-04-22T09:50:53.367Z,18.40
2018-04-22T09:53:19.806Z,18.40
2018-04-22T09:55:46.251Z,18.50
2018-04-22T09:58:12.680Z,18.70
2018-04-22T10:00:39.140Z,18.90
2018-04-22T10:03:06.458Z,19.20
2018-04-22T10:05:39.032Z,19.30
2018-04-22T10:08:05.469Z,19.50
2018-04-22T10:10:31.890Z,19.70
2018-04-22T10:12:58.328Z,20.10
2018-04-22T10:15:24.758Z,20.20
2018-04-22T10:17:51.186Z,20.40
2018-04-22T10:20:17.602Z,20.70
2018-04-22T10:22:44.782Z,21.40
2018-04-22T10:25:11.206Z,21.40
2018-04-22T10:27:37.655Z,21.40
2018-04-22T10:30:04.101Z,21.60
2018-04-22T10:32:30.531Z,21.50
2018-04-22T10:34:56.969Z,21.70
2018-04-22T10:37:23.432Z,21.80
2018-04-22T10:39:49.855Z,22.00
2018-04-22T10:42:16.287Z,22.20
2018-04-22T10:44:42.714Z,22.50
2018-04-22T10:47:09.158Z,23.00
2018-04-22T10:49:36.324Z,23.10
2018-04-22T10:52:02.761Z,23.10
2018-04-22T10:54:29.919Z,22.80
2018-04-22T10:56:57.122Z,22.60
2018-04-22T10:59:23.551Z,22.60
2018-04-22T11:01:49.957Z,22.70
2018-04-22T11:04:16.380Z,22.80
2018-04-22T11:06:43.578Z,22.90
2018-04-22T11:09:09.995Z,22.90
2018-04-22T11:11:36.401Z,23.00
2018-04-22T11:14:02.857Z,23.10
2018-04-22T11:16:29.272Z,23.30
2018-04-22T11:18:55.714Z,23.90
2018-04-22T11:21:22.143Z,24.60
2018-04-22T11:23:48.590Z,24.60
2018-04-22T11:26:15.027Z,24.90
2018-04-22T11:28:41.461Z,25.00
2018-04-22T11:31:07.903Z,25.00
2018-04-22T11:33:34.322Z,25.30
2018-04-22T11:36:00.770Z,25.40
2018-04-22T11:38:27.204Z,25.40
2018-04-22T11:40:53.607Z,25.50
2018-04-22T11:43:20.030Z,25.40
2018-04-22T11:45:47.212Z,25.50
2018-04-22T11:48:13.640Z,25.50
2018-04-22T11:50:40.063Z,25.60
2018-04-22T11:53:06.496Z,25.60
2018-04-22T11:55:32.932Z,25.50
2018-04-22T11:57:59.358Z,25.60
2018-04-22T12:00:25.855Z,25.70
2018-04-22T12:02:52.243Z,25.70
2018-04-22T12:05:18.696Z,25.70
2018-04-22T12:07:45.139Z,26.00
2018-04-22T12:10:11.568Z,26.00
2018-04-22T12:12:38.014Z,26.10
2018-04-22T12:15:04.475Z,26.30
2018-04-22T12:17:31.659Z,26.30
2018-04-22T12:19:58.092Z,26.30
2018-04-22T12:22:24.507Z,26.30
2018-04-22T12:24:50.946Z,26.50
2018-04-22T12:27:17.369Z,26.60
2018-04-22T12:29:44.524Z,26.50
2018-04-22T12:32:11.684Z,26.40
2018-04-22T12:34:38.100Z,26.40
2018-04-22T12:37:04.529Z,26.30
2018-04-22T12:39:30.952Z,26.30
2018-04-22T12:41:57.374Z,26.40
2018-04-22T12:44:23.793Z,26.50
2018-04-22T12:46:50.212Z,26.70
2018-04-22T12:49:16.651Z,26.90
2018-04-22T12:51:43.077Z,26.90
2018-04-22T12:54:09.502Z,26.80
2018-04-22T12:56:35.933Z,26.90
2018-04-22T12:59:02.339Z,26.80
2018-04-22T13:01:29.484Z,26.90
2018-04-22T13:03:56.644Z,26.90
2018-04-22T13:06:23.820Z,27.00
2018-04-22T13:08:50.255Z,27.00
2018-04-22T13:11:16.717Z,27.10
2018-04-22T13:13:43.142Z,27.20
2018-04-22T13:16:09.559Z,27.00
2018-04-22T13:18:35.994Z,26.80
2018-04-22T13:21:02.437Z,26.60
2018-04-22T13:23:28.862Z,26.50
2018-04-22T13:25:55.285Z,26.40
2018-04-22T13:30:45.726Z,26.30
2018-04-22T13:33:12.133Z,26.20
2018-04-22T13:35:38.560Z,26.20
2018-04-22T13:38:04.993Z,26.30
2018-04-22T13:40:31.413Z,26.30
2018-04-22T13:42:57.831Z,26.20
2018-04-22T13:45:24.982Z,26.60
2018-04-22T13:47:52.145Z,26.80
2018-04-22T13:50:19.297Z,26.90
2018-04-22T13:52:46.457Z,26.80
2018-04-22T13:55:12.889Z,26.80
2018-04-22T13:57:39.319Z,26.80
2018-04-22T14:00:05.750Z,26.90
2018-04-22T14:02:32.205Z,26.80
2018-04-22T14:04:58.627Z,26.50
2018-04-22T14:07:25.066Z,26.20
2018-04-22T14:09:51.504Z,26.10
2018-04-22T14:12:17.914Z,26.20
2018-04-22T14:14:44.330Z,26.30
2018-04-22T14:17:11.512Z,26.50
2018-04-22T14:19:37.917Z,26.50
2018-04-22T14:22:05.103Z,26.70
2018-04-22T14:24:31.514Z,26.60
2018-04-22T14:26:57.961Z,26.70
2018-04-22T14:29:24.382Z,26.60
2018-04-22T14:31:50.831Z,26.70
2018-04-22T14:34:17.253Z,26.70
2018-04-22T14:36:43.669Z,26.80
2018-04-22T14:39:10.108Z,26.80
2018-04-22T14:41:36.542Z,26.70
2018-04-22T14:44:16.036Z,26.40
2018-04-22T14:46:42.448Z,26.40
2018-04-22T14:49:08.886Z,26.20
2018-04-22T14:51:35.305Z,26.10
2018-04-22T14:54:01.724Z,26.20
2018-04-22T14:56:28.155Z,26.20
2018-04-22T14:58:54.572Z,26.00
2018-04-22T15:01:21.763Z,25.80
2018-04-22T15:03:48.199Z,25.80
2018-04-22T15:06:14.627Z,25.70
2018-04-22T15:08:41.040Z,25.50
2018-04-22T15:11:08.215Z,25.40
2018-04-22T15:13:34.649Z,25.40
2018-04-22T15:16:01.093Z,25.60
2018-04-22T15:18:27.519Z,26.00
2018-04-22T15:20:53.957Z,26.10
2018-04-22T15:23:20.369Z,26.10
2018-04-22T15:25:46.773Z,26.20
2018-04-22T15:28:13.211Z,26.40
2018-04-22T15:30:40.390Z,26.60
2018-04-22T15:33:06.802Z,26.60
2018-04-22T15:35:33.211Z,26.60
2018-04-22T15:37:59.653Z,26.60
2018-04-22T15:40:26.071Z,26.60
2018-04-22T15:42:52.493Z,26.60
2018-04-22T15:45:18.911Z,26.30
2018-04-22T15:47:45.443Z,26.20
2018-04-22T15:50:11.851Z,26.00
2018-04-22T15:52:38.283Z,26.10
2018-04-22T15:55:04.737Z,26.00
2018-04-22T15:57:31.169Z,26.10
2018-04-22T15:59:57.611Z,26.00
2018-04-22T16:02:24.026Z,26.00
2018-04-22T16:04:50.438Z,26.00
2018-04-22T16:07:17.619Z,26.30
2018-04-22T16:09:44.051Z,26.30
2018-04-22T16:12:10.476Z,26.20
2018-04-22T16:14:36.956Z,26.50
2018-04-22T16:17:03.378Z,26.90
2018-04-22T16:19:29.833Z,27.40
2018-04-22T16:21:56.232Z,27.90
2018-04-22T16:24:22.663Z,28.30
2018-04-22T16:26:49.091Z,28.40
2018-04-22T16:29:15.526Z,28.50
2018-04-22T16:31:41.939Z,28.10
2018-04-22T16:34:08.362Z,28.50
2018-04-22T16:36:35.517Z,28.50
2018-04-22T16:39:02.037Z,28.40
2018-04-22T16:41:29.471Z,29.00
2018-04-22T16:43:56.687Z,28.70
2018-04-22T16:46:23.127Z,28.60
2018-04-22T16:48:49.530Z,28.00
2018-04-22T16:51:15.948Z,27.30
2018-04-22T16:53:42.373Z,27.20
2018-04-22T16:56:08.791Z,27.30
2018-04-22T16:58:35.212Z,27.60
2018-04-22T17:01:01.646Z,27.80
2018-04-22T17:03:28.087Z,28.00
2018-04-22T17:05:54.571Z,28.20
2018-04-22T17:08:20.962Z,28.10
2018-04-22T17:10:47.379Z,27.80
2018-04-22T17:13:13.811Z,27.30
2018-04-22T17:15:40.246Z,27.20
2018-04-22T17:18:06.663Z,27.00
2018-04-22T17:20:33.084Z,26.80
2018-04-22T17:22:59.517Z,26.40
2018-04-22T17:25:25.925Z,25.90
2018-04-22T17:27:53.106Z,25.70
2018-04-22T17:30:19.562Z,25.60
2018-04-22T17:32:45.982Z,25.70
2018-04-22T17:35:12.409Z,25.70
2018-04-22T17:37:38.835Z,25.50
2018-04-22T17:40:05.266Z,25.30
2018-04-22T17:42:31.714Z,25.10
2018-04-22T17:44:58.149Z,24.80
2018-04-22T17:47:24.582Z,24.70
2018-04-22T17:49:51.020Z,24.50
2018-04-22T17:52:17.483Z,24.40
2018-04-22T17:54:43.904Z,24.20
2018-04-22T17:57:10.332Z,24.10
2018-04-22T17:59:36.812Z,24.00
2018-04-22T18:02:04.003Z,23.80
2018-04-22T18:04:30.425Z,23.80
2018-04-22T18:06:56.857Z,23.90
2018-04-22T18:09:23.289Z,23.90
2018-04-22T18:11:49.704Z,23.80
2018-04-22T18:14:16.873Z,23.60
2018-04-22T18:16:43.332Z,23.60
2018-04-22T18:19:09.771Z,23.60
2018-04-22T18:21:36.191Z,23.50
2018-04-22T18:24:02.629Z,23.40
2018-04-22T18:26:29.060Z,23.30
2018-04-22T18:28:55.488Z,23.20
2018-04-22T18:31:21.916Z,23.20
2018-04-22T18:33:48.396Z,23.10
2018-04-22T18:36:14.862Z,22.90
2018-04-22T18:38:41.259Z,22.90
2018-04-22T18:41:09.173Z,22.80
2018-04-22T18:43:35.596Z,22.80
2018-04-22T18:46:02.769Z,22.60
2018-04-22T18:48:29.192Z,22.60
2018-04-22T18:50:55.615Z,22.30
2018-04-22T18:53:22.032Z,22.00
2018-04-22T18:55:49.174Z,21.60
2018-04-22T18:58:15.607Z,21.60
2018-04-22T19:00:42.030Z,21.20
2018-04-22T19:03:08.449Z,21.00
2018-04-22T19:05:34.881Z,20.70
2018-04-22T19:08:01.318Z,20.50
2018-04-22T19:10:27.746Z,20.40
2018-04-22T19:12:54.159Z,20.20
2018-04-22T19:15:20.572Z,20.10
2018-04-22T19:17:46.990Z,20.30
2018-04-22T19:20:13.425Z,20.20
2018-04-22T19:22:40.598Z,20.10
2018-04-22T19:25:07.053Z,20.10
2018-04-22T19:27:33.481Z,19.80
2018-04-22T19:29:59.944Z,19.60
2018-04-22T19:32:26.379Z,19.40
2018-04-22T19:34:52.862Z,19.30
2018-04-22T19:37:19.238Z,19.20
2018-04-22T19:39:45.666Z,19.10
2018-04-22T19:42:12.157Z,18.90
2018-04-22T19:44:38.583Z,18.90
2018-04-22T19:47:05.073Z,18.80
2018-04-22T19:49:31.570Z,18.70
2018-04-22T19:51:58.008Z,18.90
2018-04-22T19:54:24.475Z,19.00
2018-04-22T19:56:50.953Z,19.50
2018-04-22T19:59:17.393Z,19.70
2018-04-22T20:01:43.847Z,19.70
2018-04-22T20:04:10.257Z,19.80
2018-04-22T20:06:36.742Z,19.80
2018-04-22T20:09:03.253Z,20.00
2018-04-22T20:11:29.734Z,20.10
2018-04-22T20:13:56.935Z,19.90
2018-04-22T20:16:23.367Z,19.90
2018-04-22T20:18:49.783Z,19.80
2018-04-22T20:21:16.211Z,19.70
2018-04-22T20:23:42.670Z,19.60
2018-04-22T20:26:09.106Z,19.60
2018-04-22T20:28:35.531Z,19.60
2018-04-22T20:31:01.957Z,19.50
2018-04-22T20:33:28.375Z,19.40
2018-04-22T20:35:54.827Z,19.30
2018-04-22T20:38:21.273Z,19.40
2018-04-22T20:40:47.701Z,19.40
2018-04-22T20:43:14.180Z,19.40
2018-04-22T20:45:40.650Z,19.40
2018-04-22T20:48:07.097Z,19.50
2018-04-22T20:50:33.562Z,19.60
2018-04-22T20:52:59.986Z,19.60
2018-04-22T20:55:26.437Z,19.60
2018-04-22T20:57:52.851Z,19.60
2018-04-22T21:00:19.302Z,19.60
2018-04-22T21:02:45.796Z,19.60
2018-04-22T21:05:12.274Z,19.60
2018-04-22T21:07:38.717Z,19.60
2018-04-22T21:10:05.223Z,19.60
2018-04-22T21:12:31.700Z,19.60
2018-04-22T21:14:58.153Z,19.50
2018-04-22T21:17:24.569Z,19.50
2018-04-22T21:19:51.016Z,19.50
2018-04-22T21:22:17.465Z,19.60
2018-04-22T21:24:43.912Z,19.60
2018-04-22T21:27:10.432Z,19.50
2018-04-22T21:29:37.630Z,19.30
2018-04-22T21:32:04.042Z,19.20
2018-04-22T21:34:31.518Z,17.80
2018-04-22T21:36:57.937Z,16.30
2018-04-22T21:39:24.364Z,15.30
2018-04-22T21:41:50.807Z,15.10
2018-04-22T21:44:17.228Z,15.20
2018-04-22T21:46:43.642Z,15.10
2018-04-22T21:49:10.816Z,15.30
2018-04-22T21:51:37.226Z,15.30
2018-04-22T21:54:03.669Z,15.40
2018-04-22T21:56:30.120Z,15.30
2018-04-22T21:58:56.600Z,15.40
2018-04-22T22:01:23.022Z,15.30
2018-04-22T22:03:49.450Z,15.40
2018-04-22T22:06:15.908Z,15.30
2018-04-22T22:08:42.326Z,15.20
2018-04-22T22:11:08.781Z,15.30
2018-04-22T22:13:35.222Z,15.20
2018-04-22T22:16:02.423Z,15.30
2018-04-22T22:18:28.875Z,15.30
2018-04-22T22:20:55.310Z,15.20
2018-04-22T22:23:21.772Z,15.00
2018-04-22T22:25:48.230Z,15.20
2018-04-22T22:28:14.662Z,15.40
2018-04-22T22:30:41.077Z,15.40
2018-04-22T22:33:07.542Z,15.30
2018-04-22T22:35:33.960Z,15.20
2018-04-22T22:38:00.407Z,15.30
2018-04-22T22:40:26.854Z,15.30
2018-04-22T22:42:53.274Z,15.30
2018-04-22T22:45:19.766Z,15.20
2018-04-22T22:47:47.689Z,15.20
2018-04-22T22:50:14.122Z,15.20
2018-04-22T22:52:40.552Z,15.20
2018-04-22T22:55:06.965Z,15.10
2018-04-22T22:57:33.412Z,15.20
2018-04-22T22:59:59.843Z,15.10
2018-04-22T23:02:26.281Z,15.10
2018-04-22T23:04:52.708Z,15.00
2018-04-22T23:07:19.164Z,14.90
2018-04-22T23:09:45.600Z,14.90
2018-04-22T23:12:12.020Z,15.00
2018-04-22T23:14:38.449Z,15.00
2018-04-22T23:17:04.858Z,15.00
2018-04-22T23:19:32.114Z,15.00
2018-04-22T23:21:58.534Z,15.00
2018-04-22T23:24:25.694Z,14.80
2018-04-22T23:26:52.856Z,14.90
2018-04-22T23:29:19.284Z,14.80
2018-04-22T23:31:45.719Z,14.90
2018-04-22T23:34:12.157Z,14.80
2018-04-22T23:36:38.616Z,14.80
2018-04-22T23:39:05.100Z,14.80
2018-04-22T23:41:31.560Z,14.80
2018-04-22T23:43:57.966Z,14.80
2018-04-22T23:46:24.370Z,14.80
2018-04-22T23:48:50.803Z,14.80
2018-04-22T23:51:17.221Z,14.90
2018-04-22T23:53:43.639Z,14.90
2018-04-22T23:56:10.057Z,14.90
2018-04-22T23:58:36.465Z,14.90
